sensor_id;sensor_type;location;lat;lon;timestamp;temperature;humidity
68766;DHT22;55756;45.582;11.484;2023-03-14T00:00:35;15.80;58.60
68766;DHT22;55756;45.582;11.484;2023-03-14T00:03:01;15.80;58.20
68766;DHT22;55756;45.582;11.484;2023-03-14T00:05:27;15.80;57.80
68766;DHT22;55756;45.582;11.484;2023-03-14T00:07:53;15.80;57.90
68766;DHT22;55756;45.582;11.484;2023-03-14T00:10:19;15.80;57.70
68766;DHT22;55756;45.582;11.484;2023-03-14T00:12:44;15.80;57.60
68766;DHT22;55756;45.582;11.484;2023-03-14T00:15:11;15.80;57.70
68766;DHT22;55756;45.582;11.484;2023-03-14T00:17:37;15.80;57.90
68766;DHT22;55756;45.582;11.484;2023-03-14T00:20:05;15.80;57.90
68766;DHT22;55756;45.582;11.484;2023-03-14T00:22:40;15.80;57.90
68766;DHT22;55756;45.582;11.484;2023-03-14T00:25:09;15.80;58.20
68766;DHT22;55756;45.582;11.484;2023-03-14T00:27:35;15.80;58.30
68766;DHT22;55756;45.582;11.484;2023-03-14T00:30:01;15.70;58.50
68766;DHT22;55756;45.582;11.484;2023-03-14T00:32:27;15.70;58.60
68766;DHT22;55756;45.582;11.484;2023-03-14T00:34:52;15.70;58.80
68766;DHT22;55756;45.582;11.484;2023-03-14T00:37:18;15.70;58.60
68766;DHT22;55756;45.582;11.484;2023-03-14T00:39:44;15.70;57.90
68766;DHT22;55756;45.582;11.484;2023-03-14T00:42:10;15.70;57.30
68766;DHT22;55756;45.582;11.484;2023-03-14T00:44:36;15.80;57.10
68766;DHT22;55756;45.582;11.484;2023-03-14T00:47:06;15.80;56.70
68766;DHT22;55756;45.582;11.484;2023-03-14T00:49:32;15.80;56.60
68766;DHT22;55756;45.582;11.484;2023-03-14T00:51:57;15.80;56.70
68766;DHT22;55756;45.582;11.484;2023-03-14T00:54:23;15.80;56.50
68766;DHT22;55756;45.582;11.484;2023-03-14T00:56:49;15.80;56.50
68766;DHT22;55756;45.582;11.484;2023-03-14T00:59:15;15.70;56.40
68766;DHT22;55756;45.582;11.484;2023-03-14T01:01:41;15.70;56.10
68766;DHT22;55756;45.582;11.484;2023-03-14T01:04:07;15.80;55.70
68766;DHT22;55756;45.582;11.484;2023-03-14T01:06:33;15.80;55.70
68766;DHT22;55756;45.582;11.484;2023-03-14T01:08:59;15.80;55.60
68766;DHT22;55756;45.582;11.484;2023-03-14T01:11:28;15.80;55.40
68766;DHT22;55756;45.582;11.484;2023-03-14T01:13:57;15.80;55.30
68766;DHT22;55756;45.582;11.484;2023-03-14T01:16:26;15.80;55.20
68766;DHT22;55756;45.582;11.484;2023-03-14T01:18:52;15.80;55.30
68766;DHT22;55756;45.582;11.484;2023-03-14T01:21:30;15.80;55.40
68766;DHT22;55756;45.582;11.484;2023-03-14T01:23:58;15.80;55.40
68766;DHT22;55756;45.582;11.484;2023-03-14T01:26:25;15.70;55.50
68766;DHT22;55756;45.582;11.484;2023-03-14T01:28:53;15.70;55.60
68766;DHT22;55756;45.582;11.484;2023-03-14T01:31:19;15.70;55.80
68766;DHT22;55756;45.582;11.484;2023-03-14T01:33:46;15.70;56.00
68766;DHT22;55756;45.582;11.484;2023-03-14T01:36:12;15.60;56.20
68766;DHT22;55756;45.582;11.484;2023-03-14T01:38:39;15.70;56.10
68766;DHT22;55756;45.582;11.484;2023-03-14T01:41:11;15.70;56.10
68766;DHT22;55756;45.582;11.484;2023-03-14T01:43:38;15.70;56.10
68766;DHT22;55756;45.582;11.484;2023-03-14T01:51:09;15.80;56.00
68766;DHT22;55756;45.582;11.484;2023-03-14T01:53:37;15.80;55.70
68766;DHT22;55756;45.582;11.484;2023-03-14T01:56:06;15.70;56.00
68766;DHT22;55756;45.582;11.484;2023-03-14T01:58:33;15.70;56.20
68766;DHT22;55756;45.582;11.484;2023-03-14T02:01:03;15.70;56.30
68766;DHT22;55756;45.582;11.484;2023-03-14T02:03:30;15.60;56.30
68766;DHT22;55756;45.582;11.484;2023-03-14T02:06:06;15.50;56.50
68766;DHT22;55756;45.582;11.484;2023-03-14T02:08:35;15.60;56.30
68766;DHT22;55756;45.582;11.484;2023-03-14T02:11:06;15.60;56.00
68766;DHT22;55756;45.582;11.484;2023-03-14T02:13:46;15.60;56.20
68766;DHT22;55756;45.582;11.484;2023-03-14T02:16:31;15.50;56.40
68766;DHT22;55756;45.582;11.484;2023-03-14T02:19:22;15.50;56.50
68766;DHT22;55756;45.582;11.484;2023-03-14T02:22:12;15.40;56.50
68766;DHT22;55756;45.582;11.484;2023-03-14T02:27:44;15.40;56.50
68766;DHT22;55756;45.582;11.484;2023-03-14T02:30:15;15.40;56.60
68766;DHT22;55756;45.582;11.484;2023-03-14T02:32:46;15.50;56.30
68766;DHT22;55756;45.582;11.484;2023-03-14T02:35:22;15.50;56.40
68766;DHT22;55756;45.582;11.484;2023-03-14T02:40:26;15.60;56.30
68766;DHT22;55756;45.582;11.484;2023-03-14T02:42:52;15.70;56.20
68766;DHT22;55756;45.582;11.484;2023-03-14T02:47:56;15.60;55.80
68766;DHT22;55756;45.582;11.484;2023-03-14T02:50:29;15.50;55.80
68766;DHT22;55756;45.582;11.484;2023-03-14T02:52:56;15.50;55.90
68766;DHT22;55756;45.582;11.484;2023-03-14T02:55:23;15.50;56.10
68766;DHT22;55756;45.582;11.484;2023-03-14T02:57:52;15.50;56.10
68766;DHT22;55756;45.582;11.484;2023-03-14T03:00:19;15.50;56.10
68766;DHT22;55756;45.582;11.484;2023-03-14T03:02:45;15.50;55.90
68766;DHT22;55756;45.582;11.484;2023-03-14T03:05:13;15.50;56.00
68766;DHT22;55756;45.582;11.484;2023-03-14T03:07:39;15.50;56.10
68766;DHT22;55756;45.582;11.484;2023-03-14T03:10:05;15.50;56.10
68766;DHT22;55756;45.582;11.484;2023-03-14T03:12:31;15.50;56.20
68766;DHT22;55756;45.582;11.484;2023-03-14T03:14:57;15.50;56.30
68766;DHT22;55756;45.582;11.484;2023-03-14T03:17:23;15.50;56.30
68766;DHT22;55756;45.582;11.484;2023-03-14T03:19:48;15.50;56.20
68766;DHT22;55756;45.582;11.484;2023-03-14T03:22:14;15.60;56.00
68766;DHT22;55756;45.582;11.484;2023-03-14T03:24:40;15.60;56.20
68766;DHT22;55756;45.582;11.484;2023-03-14T03:27:08;15.50;56.50
68766;DHT22;55756;45.582;11.484;2023-03-14T03:29:34;15.50;56.60
68766;DHT22;55756;45.582;11.484;2023-03-14T03:32:00;15.50;56.70
68766;DHT22;55756;45.582;11.484;2023-03-14T03:34:27;15.50;56.70
68766;DHT22;55756;45.582;11.484;2023-03-14T03:36:58;15.40;56.90
68766;DHT22;55756;45.582;11.484;2023-03-14T03:39:26;15.40;57.10
68766;DHT22;55756;45.582;11.484;2023-03-14T03:41:52;15.40;57.00
68766;DHT22;55756;45.582;11.484;2023-03-14T03:44:19;15.40;57.10
68766;DHT22;55756;45.582;11.484;2023-03-14T03:46:45;15.40;56.90
68766;DHT22;55756;45.582;11.484;2023-03-14T03:49:11;15.40;57.10
68766;DHT22;55756;45.582;11.484;2023-03-14T03:51:36;15.50;57.10
68766;DHT22;55756;45.582;11.484;2023-03-14T03:54:02;15.40;57.00
68766;DHT22;55756;45.582;11.484;2023-03-14T03:56:32;15.40;57.00
68766;DHT22;55756;45.582;11.484;2023-03-14T03:58:57;15.40;56.80
68766;DHT22;55756;45.582;11.484;2023-03-14T04:01:23;15.40;56.60
68766;DHT22;55756;45.582;11.484;2023-03-14T04:03:52;15.40;57.00
68766;DHT22;55756;45.582;11.484;2023-03-14T04:06:18;15.40;57.20
68766;DHT22;55756;45.582;11.484;2023-03-14T04:08:46;15.40;57.40
68766;DHT22;55756;45.582;11.484;2023-03-14T04:11:32;15.40;56.90
68766;DHT22;55756;45.582;11.484;2023-03-14T04:14:12;15.40;56.90
68766;DHT22;55756;45.582;11.484;2023-03-14T04:16:38;15.40;56.90
68766;DHT22;55756;45.582;11.484;2023-03-14T04:19:10;15.40;56.70
68766;DHT22;55756;45.582;11.484;2023-03-14T04:21:36;15.50;56.40
68766;DHT22;55756;45.582;11.484;2023-03-14T04:24:02;15.50;56.50
68766;DHT22;55756;45.582;11.484;2023-03-14T04:26:31;15.50;56.50
68766;DHT22;55756;45.582;11.484;2023-03-14T04:28:57;15.40;56.60
68766;DHT22;55756;45.582;11.484;2023-03-14T04:31:22;15.40;56.60
68766;DHT22;55756;45.582;11.484;2023-03-14T04:33:49;15.40;56.70
68766;DHT22;55756;45.582;11.484;2023-03-14T04:36:20;15.50;56.30
68766;DHT22;55756;45.582;11.484;2023-03-14T04:38:46;15.50;56.10
68766;DHT22;55756;45.582;11.484;2023-03-14T04:41:17;15.40;55.70
68766;DHT22;55756;45.582;11.484;2023-03-14T04:43:43;15.40;55.90
68766;DHT22;55756;45.582;11.484;2023-03-14T04:46:11;15.40;56.00
68766;DHT22;55756;45.582;11.484;2023-03-14T04:48:38;15.40;56.20
68766;DHT22;55756;45.582;11.484;2023-03-14T04:51:05;15.40;56.30
68766;DHT22;55756;45.582;11.484;2023-03-14T04:53:32;15.40;56.10
68766;DHT22;55756;45.582;11.484;2023-03-14T04:56:02;15.40;55.90
68766;DHT22;55756;45.582;11.484;2023-03-14T04:58:35;15.40;55.90
68766;DHT22;55756;45.582;11.484;2023-03-14T05:01:06;15.40;55.60
68766;DHT22;55756;45.582;11.484;2023-03-14T05:03:50;15.40;55.60
68766;DHT22;55756;45.582;11.484;2023-03-14T05:06:23;15.50;55.50
68766;DHT22;55756;45.582;11.484;2023-03-14T05:09:15;15.50;55.30
68766;DHT22;55756;45.582;11.484;2023-03-14T05:12:01;15.40;55.60
68766;DHT22;55756;45.582;11.484;2023-03-14T05:14:46;15.40;55.80
68766;DHT22;55756;45.582;11.484;2023-03-14T05:17:12;15.40;55.80
68766;DHT22;55756;45.582;11.484;2023-03-14T05:19:40;15.40;55.80
68766;DHT22;55756;45.582;11.484;2023-03-14T05:22:32;15.40;55.70
68766;DHT22;55756;45.582;11.484;2023-03-14T05:25:10;15.40;55.90
68766;DHT22;55756;45.582;11.484;2023-03-14T05:27:55;15.40;55.90
68766;DHT22;55756;45.582;11.484;2023-03-14T05:30:39;15.40;55.80
68766;DHT22;55756;45.582;11.484;2023-03-14T05:33:41;15.40;55.90
68766;DHT22;55756;45.582;11.484;2023-03-14T05:36:13;15.40;56.10
68766;DHT22;55756;45.582;11.484;2023-03-14T05:38:41;15.40;56.00
68766;DHT22;55756;45.582;11.484;2023-03-14T05:41:26;15.40;55.90
68766;DHT22;55756;45.582;11.484;2023-03-14T05:43:54;15.40;55.80
68766;DHT22;55756;45.582;11.484;2023-03-14T05:46:43;15.40;55.70
68766;DHT22;55756;45.582;11.484;2023-03-14T05:49:27;15.40;55.90
68766;DHT22;55756;45.582;11.484;2023-03-14T05:52:04;15.40;55.80
68766;DHT22;55756;45.582;11.484;2023-03-14T05:54:50;15.40;55.70
68766;DHT22;55756;45.582;11.484;2023-03-14T05:57:26;15.40;55.70
68766;DHT22;55756;45.582;11.484;2023-03-14T06:00:11;15.50;55.30
68766;DHT22;55756;45.582;11.484;2023-03-14T06:02:47;15.60;55.30
68766;DHT22;55756;45.582;11.484;2023-03-14T06:05:22;15.50;55.50
68766;DHT22;55756;45.582;11.484;2023-03-14T06:07:50;15.40;55.60
68766;DHT22;55756;45.582;11.484;2023-03-14T06:10:16;15.40;55.60
68766;DHT22;55756;45.582;11.484;2023-03-14T06:12:41;15.50;55.70
68766;DHT22;55756;45.582;11.484;2023-03-14T06:15:08;15.50;55.80
68766;DHT22;55756;45.582;11.484;2023-03-14T06:17:34;15.50;55.70
68766;DHT22;55756;45.582;11.484;2023-03-14T06:20:05;15.50;56.00
68766;DHT22;55756;45.582;11.484;2023-03-14T06:22:31;15.50;56.90
68766;DHT22;55756;45.582;11.484;2023-03-14T06:24:57;15.50;57.50
68766;DHT22;55756;45.582;11.484;2023-03-14T06:27:24;15.50;58.20
68766;DHT22;55756;45.582;11.484;2023-03-14T06:29:54;15.50;58.30
68766;DHT22;55756;45.582;11.484;2023-03-14T06:32:20;15.50;58.90
68766;DHT22;55756;45.582;11.484;2023-03-14T06:34:49;15.40;59.60
68766;DHT22;55756;45.582;11.484;2023-03-14T06:37:15;15.50;60.30
68766;DHT22;55756;45.582;11.484;2023-03-14T06:39:41;15.40;60.90
68766;DHT22;55756;45.582;11.484;2023-03-14T06:42:14;15.40;61.30
68766;DHT22;55756;45.582;11.484;2023-03-14T06:44:41;15.40;61.30
68766;DHT22;55756;45.582;11.484;2023-03-14T06:47:07;15.40;61.70
68766;DHT22;55756;45.582;11.484;2023-03-14T06:49:34;15.40;62.10
68766;DHT22;55756;45.582;11.484;2023-03-14T06:52:01;15.30;62.70
68766;DHT22;55756;45.582;11.484;2023-03-14T06:54:28;15.30;62.50
68766;DHT22;55756;45.582;11.484;2023-03-14T06:56:54;15.30;62.90
68766;DHT22;55756;45.582;11.484;2023-03-14T06:59:20;15.20;63.30
68766;DHT22;55756;45.582;11.484;2023-03-14T07:01:48;15.20;63.30
68766;DHT22;55756;45.582;11.484;2023-03-14T07:04:16;15.20;63.20
68766;DHT22;55756;45.582;11.484;2023-03-14T07:06:45;15.10;63.50
68766;DHT22;55756;45.582;11.484;2023-03-14T07:09:13;15.10;63.70
68766;DHT22;55756;45.582;11.484;2023-03-14T07:11:44;15.00;63.90
68766;DHT22;55756;45.582;11.484;2023-03-14T07:14:10;15.00;64.00
68766;DHT22;55756;45.582;11.484;2023-03-14T07:16:36;15.00;64.20
68766;DHT22;55756;45.582;11.484;2023-03-14T07:19:03;15.00;64.30
68766;DHT22;55756;45.582;11.484;2023-03-14T07:21:29;15.00;64.40
68766;DHT22;55756;45.582;11.484;2023-03-14T07:23:55;15.00;64.40
68766;DHT22;55756;45.582;11.484;2023-03-14T07:26:21;15.00;64.70
68766;DHT22;55756;45.582;11.484;2023-03-14T07:28:50;15.10;65.00
68766;DHT22;55756;45.582;11.484;2023-03-14T07:31:18;15.10;64.70
68766;DHT22;55756;45.582;11.484;2023-03-14T07:33:44;15.10;64.50
68766;DHT22;55756;45.582;11.484;2023-03-14T07:36:10;15.10;64.40
68766;DHT22;55756;45.582;11.484;2023-03-14T07:38:37;15.10;64.80
68766;DHT22;55756;45.582;11.484;2023-03-14T07:41:13;15.10;64.90
68766;DHT22;55756;45.582;11.484;2023-03-14T07:43:46;15.00;64.50
68766;DHT22;55756;45.582;11.484;2023-03-14T07:46:12;15.00;64.60
68766;DHT22;55756;45.582;11.484;2023-03-14T07:48:38;15.00;65.30
68766;DHT22;55756;45.582;11.484;2023-03-14T07:51:04;15.00;65.20
68766;DHT22;55756;45.582;11.484;2023-03-14T07:53:29;15.00;65.10
68766;DHT22;55756;45.582;11.484;2023-03-14T07:55:55;15.00;64.90
68766;DHT22;55756;45.582;11.484;2023-03-14T07:58:21;15.00;65.00
68766;DHT22;55756;45.582;11.484;2023-03-14T08:00:47;15.00;65.50
68766;DHT22;55756;45.582;11.484;2023-03-14T08:03:13;15.00;65.60
68766;DHT22;55756;45.582;11.484;2023-03-14T08:05:39;14.90;64.90
68766;DHT22;55756;45.582;11.484;2023-03-14T08:08:05;14.90;65.20
68766;DHT22;55756;45.582;11.484;2023-03-14T08:10:32;14.90;65.50
68766;DHT22;55756;45.582;11.484;2023-03-14T08:12:59;15.00;65.30
68766;DHT22;55756;45.582;11.484;2023-03-14T08:15:25;15.00;65.20
68766;DHT22;55756;45.582;11.484;2023-03-14T08:17:52;15.00;64.80
68766;DHT22;55756;45.582;11.484;2023-03-14T08:20:24;15.00;64.60
68766;DHT22;55756;45.582;11.484;2023-03-14T08:22:50;15.20;64.10
68766;DHT22;55756;45.582;11.484;2023-03-14T08:25:16;15.10;64.20
68766;DHT22;55756;45.582;11.484;2023-03-14T08:27:42;15.10;64.30
68766;DHT22;55756;45.582;11.484;2023-03-14T08:30:13;15.10;64.90
68766;DHT22;55756;45.582;11.484;2023-03-14T08:32:39;15.00;65.30
68766;DHT22;55756;45.582;11.484;2023-03-14T08:35:06;15.10;65.50
68766;DHT22;55756;45.582;11.484;2023-03-14T08:37:32;15.20;65.30
68766;DHT22;55756;45.582;11.484;2023-03-14T08:39:59;15.10;65.40
68766;DHT22;55756;45.582;11.484;2023-03-14T08:42:24;15.10;65.90
68766;DHT22;55756;45.582;11.484;2023-03-14T08:44:51;15.10;66.00
68766;DHT22;55756;45.582;11.484;2023-03-14T08:47:17;15.00;66.20
68766;DHT22;55756;45.582;11.484;2023-03-14T08:49:43;15.10;66.10
68766;DHT22;55756;45.582;11.484;2023-03-14T08:52:08;15.10;65.70
68766;DHT22;55756;45.582;11.484;2023-03-14T08:54:35;15.10;65.50
68766;DHT22;55756;45.582;11.484;2023-03-14T08:57:00;15.10;65.70
68766;DHT22;55756;45.582;11.484;2023-03-14T08:59:26;15.00;66.10
68766;DHT22;55756;45.582;11.484;2023-03-14T09:01:52;15.00;66.50
68766;DHT22;55756;45.582;11.484;2023-03-14T09:04:20;15.00;66.70
68766;DHT22;55756;45.582;11.484;2023-03-14T09:06:45;15.00;66.70
68766;DHT22;55756;45.582;11.484;2023-03-14T09:09:11;15.00;66.80
68766;DHT22;55756;45.582;11.484;2023-03-14T09:11:39;15.10;66.80
68766;DHT22;55756;45.582;11.484;2023-03-14T09:14:05;15.10;66.90
68766;DHT22;55756;45.582;11.484;2023-03-14T09:16:31;15.10;66.90
68766;DHT22;55756;45.582;11.484;2023-03-14T09:18:58;15.10;66.90
68766;DHT22;55756;45.582;11.484;2023-03-14T09:21:26;15.10;67.10
68766;DHT22;55756;45.582;11.484;2023-03-14T09:23:52;15.10;67.30
68766;DHT22;55756;45.582;11.484;2023-03-14T09:26:19;15.20;67.60
68766;DHT22;55756;45.582;11.484;2023-03-14T09:28:45;15.20;67.70
68766;DHT22;55756;45.582;11.484;2023-03-14T09:31:11;15.20;67.60
68766;DHT22;55756;45.582;11.484;2023-03-14T09:33:37;15.30;67.60
68766;DHT22;55756;45.582;11.484;2023-03-14T09:36:04;15.40;67.00
68766;DHT22;55756;45.582;11.484;2023-03-14T09:38:30;15.40;67.10
68766;DHT22;55756;45.582;11.484;2023-03-14T09:41:00;15.40;67.10
68766;DHT22;55756;45.582;11.484;2023-03-14T09:43:29;15.40;67.00
68766;DHT22;55756;45.582;11.484;2023-03-14T09:45:57;15.40;66.80
68766;DHT22;55756;45.582;11.484;2023-03-14T09:48:30;15.40;66.90
68766;DHT22;55756;45.582;11.484;2023-03-14T09:50:58;15.40;66.80
68766;DHT22;55756;45.582;11.484;2023-03-14T09:53:37;15.50;66.80
68766;DHT22;55756;45.582;11.484;2023-03-14T09:56:16;15.50;67.10
68766;DHT22;55756;45.582;11.484;2023-03-14T09:58:45;15.60;67.20
68766;DHT22;55756;45.582;11.484;2023-03-14T10:01:14;15.60;67.30
68766;DHT22;55756;45.582;11.484;2023-03-14T10:03:42;15.60;67.20
68766;DHT22;55756;45.582;11.484;2023-03-14T10:06:13;15.60;66.90
68766;DHT22;55756;45.582;11.484;2023-03-14T10:08:44;15.60;67.30
68766;DHT22;55756;45.582;11.484;2023-03-14T10:11:17;15.60;67.50
68766;DHT22;55756;45.582;11.484;2023-03-14T10:16:44;15.70;66.80
68766;DHT22;55756;45.582;11.484;2023-03-14T10:19:13;15.60;66.60
68766;DHT22;55756;45.582;11.484;2023-03-14T10:21:41;15.60;67.10
68766;DHT22;55756;45.582;11.484;2023-03-14T10:26:53;15.60;67.20
68766;DHT22;55756;45.582;11.484;2023-03-14T10:29:19;15.70;67.40
68766;DHT22;55756;45.582;11.484;2023-03-14T10:31:56;15.70;67.60
68766;DHT22;55756;45.582;11.484;2023-03-14T10:34:26;15.70;67.20
68766;DHT22;55756;45.582;11.484;2023-03-14T10:36:56;15.70;66.90
68766;DHT22;55756;45.582;11.484;2023-03-14T10:39:35;15.70;67.00
68766;DHT22;55756;45.582;11.484;2023-03-14T10:42:12;15.70;67.10
68766;DHT22;55756;45.582;11.484;2023-03-14T10:44:38;15.70;67.20
68766;DHT22;55756;45.582;11.484;2023-03-14T10:47:04;15.70;67.40
68766;DHT22;55756;45.582;11.484;2023-03-14T10:49:36;15.70;67.60
68766;DHT22;55756;45.582;11.484;2023-03-14T10:52:14;15.70;67.60
68766;DHT22;55756;45.582;11.484;2023-03-14T10:54:40;15.70;67.50
68766;DHT22;55756;45.582;11.484;2023-03-14T10:57:06;15.70;67.70
68766;DHT22;55756;45.582;11.484;2023-03-14T10:59:36;15.70;68.00
68766;DHT22;55756;45.582;11.484;2023-03-14T11:07:34;15.60;68.00
68766;DHT22;55756;45.582;11.484;2023-03-14T11:10:26;15.60;68.10
68766;DHT22;55756;45.582;11.484;2023-03-14T11:16:02;15.60;68.30
68766;DHT22;55756;45.582;11.484;2023-03-14T11:26:33;15.60;68.30
68766;DHT22;55756;45.582;11.484;2023-03-14T11:31:58;15.50;68.30
68766;DHT22;55756;45.582;11.484;2023-03-14T11:37:06;15.50;69.10
68766;DHT22;55756;45.582;11.484;2023-03-14T11:39:56;15.60;69.30
68766;DHT22;55756;45.582;11.484;2023-03-14T11:42:27;15.60;69.40
68766;DHT22;55756;45.582;11.484;2023-03-14T11:44:55;15.70;69.50
68766;DHT22;55756;45.582;11.484;2023-03-14T11:47:26;15.70;69.10
68766;DHT22;55756;45.582;11.484;2023-03-14T11:50:09;15.70;69.10
68766;DHT22;55756;45.582;11.484;2023-03-14T11:52:50;15.70;69.30
68766;DHT22;55756;45.582;11.484;2023-03-14T11:57:55;15.70;69.30
68766;DHT22;55756;45.582;11.484;2023-03-14T12:00:24;15.80;69.40
68766;DHT22;55756;45.582;11.484;2023-03-14T12:08:45;15.80;69.00
68766;DHT22;55756;45.582;11.484;2023-03-14T12:11:23;15.90;68.90
68766;DHT22;55756;45.582;11.484;2023-03-14T12:13:52;15.90;68.70
68766;DHT22;55756;45.582;11.484;2023-03-14T12:24:33;15.90;68.80
68766;DHT22;55756;45.582;11.484;2023-03-14T12:27:02;15.90;68.90
68766;DHT22;55756;45.582;11.484;2023-03-14T12:29:28;15.90;68.80
68766;DHT22;55756;45.582;11.484;2023-03-14T12:32:08;15.90;68.90
68766;DHT22;55756;45.582;11.484;2023-03-14T12:34:44;15.90;68.80
68766;DHT22;55756;45.582;11.484;2023-03-14T12:37:23;15.90;69.20
68766;DHT22;55756;45.582;11.484;2023-03-14T12:43:02;15.90;68.80
68766;DHT22;55756;45.582;11.484;2023-03-14T12:45:34;15.90;68.80
68766;DHT22;55756;45.582;11.484;2023-03-14T12:50:53;16.00;69.30
68766;DHT22;55756;45.582;11.484;2023-03-14T12:56:18;16.00;69.10
68766;DHT22;55756;45.582;11.484;2023-03-14T13:01:33;16.00;68.90
68766;DHT22;55756;45.582;11.484;2023-03-14T13:04:09;16.00;69.00
68766;DHT22;55756;45.582;11.484;2023-03-14T13:06:53;16.10;68.80
68766;DHT22;55756;45.582;11.484;2023-03-14T13:12:14;16.10;69.00
68766;DHT22;55756;45.582;11.484;2023-03-14T13:14:45;16.20;69.30
68766;DHT22;55756;45.582;11.484;2023-03-14T13:17:12;16.20;69.00
68766;DHT22;55756;45.582;11.484;2023-03-14T13:19:38;16.20;68.60
68766;DHT22;55756;45.582;11.484;2023-03-14T13:22:24;16.20;68.80
68766;DHT22;55756;45.582;11.484;2023-03-14T13:25:01;16.30;68.50
68766;DHT22;55756;45.582;11.484;2023-03-14T13:27:30;16.20;68.60
68766;DHT22;55756;45.582;11.484;2023-03-14T13:29:57;16.30;68.80
68766;DHT22;55756;45.582;11.484;2023-03-14T13:32:27;16.40;69.00
68766;DHT22;55756;45.582;11.484;2023-03-14T13:34:57;16.40;68.10
68766;DHT22;55756;45.582;11.484;2023-03-14T13:37:25;16.40;67.70
68766;DHT22;55756;45.582;11.484;2023-03-14T13:39:56;16.40;67.20
68766;DHT22;55756;45.582;11.484;2023-03-14T13:42:28;16.40;67.40
68766;DHT22;55756;45.582;11.484;2023-03-14T13:44:56;16.50;66.30
68766;DHT22;55756;45.582;11.484;2023-03-14T13:47:24;16.50;66.00
68766;DHT22;55756;45.582;11.484;2023-03-14T13:49:51;16.60;66.30
68766;DHT22;55756;45.582;11.484;2023-03-14T13:52:40;16.60;66.80
68766;DHT22;55756;45.582;11.484;2023-03-14T13:55:14;16.70;66.40
68766;DHT22;55756;45.582;11.484;2023-03-14T13:57:52;16.80;66.60
68766;DHT22;55756;45.582;11.484;2023-03-14T14:00:24;16.90;66.70
68766;DHT22;55756;45.582;11.484;2023-03-14T14:02:57;17.00;66.50
68766;DHT22;55756;45.582;11.484;2023-03-14T14:05:27;17.00;66.10
68766;DHT22;55756;45.582;11.484;2023-03-14T14:07:54;17.00;65.80
68766;DHT22;55756;45.582;11.484;2023-03-14T14:10:21;16.90;65.70
68766;DHT22;55756;45.582;11.484;2023-03-14T14:12:50;16.90;66.00
68766;DHT22;55756;45.582;11.484;2023-03-14T14:15:23;16.80;66.50
68766;DHT22;55756;45.582;11.484;2023-03-14T14:17:56;16.80;66.20
68766;DHT22;55756;45.582;11.484;2023-03-14T14:22:49;16.70;66.40
68766;DHT22;55756;45.582;11.484;2023-03-14T14:25:15;16.70;66.50
68766;DHT22;55756;45.582;11.484;2023-03-14T14:27:46;16.70;66.70
68766;DHT22;55756;45.582;11.484;2023-03-14T14:32:48;16.70;67.10
68766;DHT22;55756;45.582;11.484;2023-03-14T14:35:30;16.70;67.20
68766;DHT22;55756;45.582;11.484;2023-03-14T14:37:56;16.70;66.70
68766;DHT22;55756;45.582;11.484;2023-03-14T14:40:25;16.70;66.30
68766;DHT22;55756;45.582;11.484;2023-03-14T14:42:51;16.70;66.30
68766;DHT22;55756;45.582;11.484;2023-03-14T14:45:22;16.70;66.20
68766;DHT22;55756;45.582;11.484;2023-03-14T14:48:09;16.70;66.10
68766;DHT22;55756;45.582;11.484;2023-03-14T14:50:55;16.70;66.10
68766;DHT22;55756;45.582;11.484;2023-03-14T14:53:34;16.70;65.90
68766;DHT22;55756;45.582;11.484;2023-03-14T14:56:06;16.70;66.00
68766;DHT22;55756;45.582;11.484;2023-03-14T14:58:40;16.70;66.10
68766;DHT22;55756;45.582;11.484;2023-03-14T15:01:18;16.70;66.00
68766;DHT22;55756;45.582;11.484;2023-03-14T15:03:47;16.80;65.80
68766;DHT22;55756;45.582;11.484;2023-03-14T15:06:15;16.80;66.00
68766;DHT22;55756;45.582;11.484;2023-03-14T15:08:43;16.80;65.80
68766;DHT22;55756;45.582;11.484;2023-03-14T15:11:21;16.80;65.60
68766;DHT22;55756;45.582;11.484;2023-03-14T15:13:48;16.80;65.20
68766;DHT22;55756;45.582;11.484;2023-03-14T15:16:20;16.80;65.30
68766;DHT22;55756;45.582;11.484;2023-03-14T15:18:57;16.80;65.30
68766;DHT22;55756;45.582;11.484;2023-03-14T15:21:26;16.80;65.10
68766;DHT22;55756;45.582;11.484;2023-03-14T15:23:52;16.80;65.30
68766;DHT22;55756;45.582;11.484;2023-03-14T15:26:19;16.90;65.40
68766;DHT22;55756;45.582;11.484;2023-03-14T15:28:46;16.90;65.40
68766;DHT22;55756;45.582;11.484;2023-03-14T15:31:13;16.90;65.20
68766;DHT22;55756;45.582;11.484;2023-03-14T15:33:40;16.90;65.30
68766;DHT22;55756;45.582;11.484;2023-03-14T15:36:27;16.90;65.50
68766;DHT22;55756;45.582;11.484;2023-03-14T15:38:54;16.90;65.20
68766;DHT22;55756;45.582;11.484;2023-03-14T15:41:21;17.00;65.10
68766;DHT22;55756;45.582;11.484;2023-03-14T15:43:47;16.90;64.80
68766;DHT22;55756;45.582;11.484;2023-03-14T15:46:14;17.00;64.70
68766;DHT22;55756;45.582;11.484;2023-03-14T15:48:40;17.00;65.00
68766;DHT22;55756;45.582;11.484;2023-03-14T15:51:06;16.90;64.90
68766;DHT22;55756;45.582;11.484;2023-03-14T15:53:32;17.00;64.80
68766;DHT22;55756;45.582;11.484;2023-03-14T15:55:58;16.90;64.90
68766;DHT22;55756;45.582;11.484;2023-03-14T15:58:24;16.90;65.10
68766;DHT22;55756;45.582;11.484;2023-03-14T16:00:50;17.00;64.90
68766;DHT22;55756;45.582;11.484;2023-03-14T16:03:16;17.00;64.80
68766;DHT22;55756;45.582;11.484;2023-03-14T16:05:42;16.90;64.60
68766;DHT22;55756;45.582;11.484;2023-03-14T16:08:08;16.90;64.40
68766;DHT22;55756;45.582;11.484;2023-03-14T16:10:34;16.90;64.00
68766;DHT22;55756;45.582;11.484;2023-03-14T16:13:00;16.90;64.20
68766;DHT22;55756;45.582;11.484;2023-03-14T16:15:26;16.90;64.70
68766;DHT22;55756;45.582;11.484;2023-03-14T16:17:56;16.90;65.00
68766;DHT22;55756;45.582;11.484;2023-03-14T16:20:22;16.90;65.00
68766;DHT22;55756;45.582;11.484;2023-03-14T16:22:48;16.90;65.10
68766;DHT22;55756;45.582;11.484;2023-03-14T16:25:14;16.80;65.10
68766;DHT22;55756;45.582;11.484;2023-03-14T16:27:40;16.80;65.30
68766;DHT22;55756;45.582;11.484;2023-03-14T16:30:07;16.80;65.40
68766;DHT22;55756;45.582;11.484;2023-03-14T16:32:34;16.80;65.40
68766;DHT22;55756;45.582;11.484;2023-03-14T16:35:00;16.80;65.60
68766;DHT22;55756;45.582;11.484;2023-03-14T16:37:26;16.80;65.90
68766;DHT22;55756;45.582;11.484;2023-03-14T16:39:52;16.80;66.00
68766;DHT22;55756;45.582;11.484;2023-03-14T16:42:19;16.80;66.10
68766;DHT22;55756;45.582;11.484;2023-03-14T16:44:45;16.80;66.00
68766;DHT22;55756;45.582;11.484;2023-03-14T16:47:12;16.80;65.90